Time;durP1;ratioP1;P1;durP2;ratioP2;P2;SDS_P1;SDS_P2;PMS_P1;PMS_P2;Temp;Humidity;BMP_temperature;BMP_pressure;BME280_temperature;BME280_humidity;BME280_pressure;Samples;Min_cycle;Max_cycle;Signal;HPM_P1;HPM_P2
2021/09/16 00:00:11;;;;;;;17.17;11.85;;;;;;;19.45;83.54;100515.63;690721;28;20973;-69
2021/09/16 00:00:36;;;;;;;12.90;11.60;;;;;;;19.44;83.79;100521.34;687297;28;138035;-69
2021/09/16 00:00:59;;;;;;;12.70;11.40;;;;;;;19.44;83.59;100521.34;691075;28;22393;-69
2021/09/16 00:01:20;;;;;;;13.00;11.80;;;;;;;19.42;83.62;100518.84;689979;28;44099;-69
2021/09/16 00:01:42;;;;;;;12.90;11.70;;;;;;;19.44;83.64;100521.34;690065;28;45289;-69
2021/09/16 00:02:03;;;;;;;12.98;11.40;;;;;;;19.43;83.66;100522.41;689089;28;44432;-69
2021/09/16 00:02:25;;;;;;;13.48;12.07;;;;;;;19.43;83.68;100517.75;691552;28;22403;-69
2021/09/16 00:02:46;;;;;;;13.07;11.68;;;;;;;19.43;83.92;100523.22;691350;28;21554;-69
2021/09/16 00:03:08;;;;;;;13.15;11.75;;;;;;;19.44;83.83;100518.59;690605;28;22414;-69
2021/09/16 00:03:29;;;;;;;13.48;11.35;;;;;;;19.44;83.70;100522.16;688282;28;44429;-69
2021/09/16 00:03:50;;;;;;;13.95;11.50;;;;;;;19.41;83.75;100516.34;688568;28;22418;-70
2021/09/16 00:04:11;;;;;;;13.88;11.50;;;;;;;19.43;83.67;100519.66;691259;28;20899;-69
2021/09/16 00:04:33;;;;;;;13.35;11.40;;;;;;;19.43;83.86;100519.66;690753;28;23430;-69
2021/09/16 00:04:54;;;;;;;12.45;11.27;;;;;;;19.43;83.63;100530.63;690269;28;46133;-69
2021/09/16 00:05:15;;;;;;;12.50;11.30;;;;;;;19.42;83.75;100518.84;691011;28;23491;-70
2021/09/16 00:05:36;;;;;;;13.57;12.00;;;;;;;19.42;84.05;100518.03;690931;28;23461;-69
2021/09/16 00:05:58;;;;;;;12.88;11.57;;;;;;;19.43;83.63;100527.88;690736;28;23504;-70
2021/09/16 00:06:19;;;;;;;12.88;11.57;;;;;;;19.43;83.70;100525.16;686785;28;69178;-69
2021/09/16 00:06:40;;;;;;;13.10;11.73;;;;;;;19.43;83.83;100520.50;687753;28;46172;-69
2021/09/16 00:07:02;;;;;;;12.75;11.38;;;;;;;19.41;83.97;100519.91;688037;28;46533;-70
2021/09/16 00:07:24;;;;;;;13.77;11.35;;;;;;;19.42;83.72;100524.31;689631;28;1551;-69
2021/09/16 00:07:45;;;;;;;13.77;11.52;;;;;;;19.43;84.03;100525.16;687248;28;44407;-69
2021/09/16 00:08:07;;;;;;;13.73;11.80;;;;;;;19.42;83.96;100524.31;688135;28;25103;-70
2021/09/16 00:08:28;;;;;;;12.48;11.18;;;;;;;19.43;83.88;100528.69;689129;28;44402;-68
2021/09/16 00:08:50;;;;;;;13.05;11.65;;;;;;;19.44;83.92;100530.38;688666;28;23572;-70
2021/09/16 00:09:11;;;;;;;13.07;11.57;;;;;;;19.44;84.03;100526.81;687670;28;45132;-69
2021/09/16 00:09:32;;;;;;;13.70;11.80;;;;;;;19.44;83.90;100522.16;688281;28;22202;-69
2021/09/16 00:09:53;;;;;;;14.05;11.98;;;;;;;19.44;83.70;100530.38;688996;28;22382;-69
2021/09/16 00:10:16;;;;;;;12.95;11.65;;;;;;;19.45;83.78;100529.31;688753;28;22418;-69
2021/09/16 00:10:37;;;;;;;15.65;12.45;;;;;;;19.46;83.92;100524.66;687099;28;68364;-69
2021/09/16 00:10:58;;;;;;;13.00;11.63;;;;;;;19.45;83.95;100532.06;688668;28;22545;-69
2021/09/16 00:11:19;;;;;;;12.75;11.48;;;;;;;19.45;84.00;100526.56;688387;28;22429;-69
2021/09/16 00:11:41;;;;;;;13.77;11.75;;;;;;;19.47;83.83;100530.97;688650;28;23571;-68
2021/09/16 00:12:03;;;;;;;13.00;11.60;;;;;;;19.44;83.90;100524.91;687948;28;45299;-69
2021/09/16 00:12:24;;;;;;;13.00;11.70;;;;;;;19.44;83.78;100521.34;688605;28;44400;-68
2021/09/16 00:12:45;;;;;;;13.05;11.65;;;;;;;19.44;84.04;100527.66;687420;28;22427;-69
2021/09/16 00:13:07;;;;;;;13.25;11.45;;;;;;;19.46;83.75;100527.41;688162;28;20857;-69
2021/09/16 00:13:28;;;;;;;13.27;11.32;;;;;;;19.47;83.93;100520.88;688114;28;45137;-69
2021/09/16 00:13:50;;;;;;;13.75;11.70;;;;;;;19.47;83.93;100529.06;688543;28;21541;-69
2021/09/16 00:14:11;;;;;;;13.35;11.57;;;;;;;19.45;83.89;100525.72;688659;28;21537;-69
2021/09/16 00:14:33;;;;;;;14.38;12.00;;;;;;;19.48;83.88;100522.50;688501;28;22423;-70
2021/09/16 00:14:54;;;;;;;13.95;11.93;;;;;;;19.49;83.91;100531.56;687759;28;45275;-69
2021/09/16 00:15:15;;;;;;;13.23;11.45;;;;;;;19.47;83.84;100520.00;688087;28;21578;-69
2021/09/16 00:15:36;;;;;;;14.30;11.90;;;;;;;19.49;83.82;100528.84;688882;28;22408;-69
2021/09/16 00:15:58;;;;;;;13.63;11.82;;;;;;;19.49;83.68;100517.88;688539;28;24340;-69
2021/09/16 00:16:19;;;;;;;14.55;12.25;;;;;;;19.48;83.77;100521.69;686207;28;69501;-69
2021/09/16 00:16:40;;;;;;;13.35;11.70;;;;;;;19.48;83.85;100530.72;688759;28;21335;-70
2021/09/16 00:17:02;;;;;;;13.82;11.60;;;;;;;19.49;83.71;100517.88;687908;28;46343;-69
2021/09/16 00:17:24;;;;;;;16.48;12.00;;;;;;;19.47;83.77;100525.50;688817;28;23477;-69
2021/09/16 00:17:45;;;;;;;13.20;11.68;;;;;;;19.50;83.99;100525.00;687428;28;47007;-69
2021/09/16 00:18:06;;;;;;;13.50;12.05;;;;;;;19.49;83.77;100526.09;688306;28;20911;-69
2021/09/16 00:18:27;;;;;;;15.32;11.93;;;;;;;19.49;83.92;100523.34;688806;28;24186;-69
2021/09/16 00:18:49;;;;;;;15.82;11.85;;;;;;;19.49;83.70;100524.19;688587;28;23505;-69
2021/09/16 00:19:10;;;;;;;14.77;12.13;;;;;;;19.50;83.77;100520.38;687754;28;45212;-69
2021/09/16 00:19:31;;;;;;;13.90;11.68;;;;;;;19.50;83.67;100525.00;688389;28;22406;-69
2021/09/16 00:19:52;;;;;;;14.80;13.13;;;;;;;19.50;83.83;100525.00;688612;28;21523;-69
2021/09/16 00:20:14;;;;;;;15.45;13.85;;;;;;;19.50;83.82;100519.53;689062;28;22428;-69
2021/09/16 00:20:35;;;;;;;16.08;13.88;;;;;;;19.49;83.66;100520.63;687862;28;46332;-71
2021/09/16 00:20:56;;;;;;;15.35;13.15;;;;;;;19.51;83.80;100529.41;688403;28;23349;-69
2021/09/16 00:21:17;;;;;;;16.08;13.00;;;;;;;19.51;83.69;100521.19;688473;28;21347;-69
2021/09/16 00:21:39;;;;;;;20.95;16.30;;;;;;;19.51;83.78;100530.25;688478;28;23679;-69
2021/09/16 00:22:01;;;;;;;28.65;23.38;;;;;;;19.50;83.62;100523.13;688814;28;21551;-69
2021/09/16 00:22:22;;;;;;;32.92;25.10;;;;;;;19.51;83.73;100524.75;687204;28;45056;-69
2021/09/16 00:22:43;;;;;;;24.38;19.00;;;;;;;19.51;83.78;100522.03;688738;28;21563;-69
2021/09/16 00:23:04;;;;;;;24.08;20.00;;;;;;;19.50;83.61;100523.13;688262;28;22399;-69
2021/09/16 00:23:26;;;;;;;22.55;19.02;;;;;;;19.52;83.62;100531.09;687699;28;46176;-68
2021/09/16 00:23:48;;;;;;;18.38;14.02;;;;;;;19.52;83.63;100520.13;687732;28;44391;-69
2021/09/16 00:24:09;;;;;;;17.25;13.27;;;;;;;19.52;83.60;100517.41;687615;28;45336;-69
2021/09/16 00:24:30;;;;;;;13.73;12.25;;;;;;;19.52;83.68;100520.97;688887;28;21509;-69
2021/09/16 00:24:51;;;;;;;20.30;16.83;;;;;;;19.53;83.59;100530.00;688156;28;23637;-69
2021/09/16 00:25:12;;;;;;;21.70;17.42;;;;;;;19.52;83.56;100525.63;688036;28;22261;-70
2021/09/16 00:25:34;;;;;;;16.63;13.18;;;;;;;19.52;83.48;100520.13;688872;28;23502;-69
2021/09/16 00:25:56;;;;;;;17.50;15.40;;;;;;;19.52;83.69;100515.47;686492;28;46278;-70
2021/09/16 00:26:17;;;;;;;25.58;18.88;;;;;;;19.51;83.71;100523.94;688830;28;1724;-69
2021/09/16 00:26:39;;;;;;;28.02;20.63;;;;;;;19.51;83.63;100524.75;687039;28;22398;-69
2021/09/16 00:27:00;;;;;;;22.88;18.23;;;;;;;19.51;83.75;100521.19;686297;28;44395;-70
2021/09/16 00:27:21;;;;;;;20.73;17.30;;;;;;;19.52;83.60;100522.88;687236;28;22404;-70
2021/09/16 00:27:42;;;;;;;19.83;15.98;;;;;;;19.53;83.59;100516.31;686467;28;23462;-69
2021/09/16 00:28:04;;;;;;;18.27;13.50;;;;;;;19.53;83.67;100528.13;687139;28;22405;-69
2021/09/16 00:28:25;;;;;;;14.70;12.50;;;;;;;19.53;83.69;100522.63;687658;28;69445;-69
2021/09/16 00:28:46;;;;;;;16.27;12.40;;;;;;;19.52;83.59;100520.97;688290;28;23417;-69
2021/09/16 00:29:09;;;;;;;19.08;14.95;;;;;;;19.53;83.87;100521.78;688676;28;23297;-69
2021/09/16 00:29:31;;;;;;;27.40;21.48;;;;;;;19.53;83.79;100524.53;687213;28;69516;-69
2021/09/16 00:29:53;;;;;;;27.42;21.40;;;;;;;19.50;83.71;100516.78;688322;28;21538;-69
2021/09/16 00:30:14;;;;;;;47.50;32.65;;;;;;;19.53;83.64;100530.00;688746;28;46103;-69
2021/09/16 00:30:35;;;;;;;45.65;31.23;;;;;;;19.52;83.83;100525.63;688947;28;21293;-69
2021/09/16 00:30:56;;;;;;;20.23;16.42;;;;;;;19.53;83.63;100527.25;688524;28;21566;-69
2021/09/16 00:31:18;;;;;;;35.65;24.52;;;;;;;19.53;83.84;100530.00;688356;28;22395;-69
2021/09/16 00:31:40;;;;;;;45.60;30.80;;;;;;;19.52;83.62;100526.44;687671;28;44545;-69
2021/09/16 00:32:01;;;;;;;37.88;25.48;;;;;;;19.52;83.61;100528.34;688925;28;21333;-69
2021/09/16 00:32:22;;;;;;;24.60;18.17;;;;;;;19.52;83.84;100526.44;687218;28;46336;-69
2021/09/16 00:32:44;;;;;;;16.47;13.73;;;;;;;19.53;83.80;100532.75;687814;28;44425;-69
2021/09/16 00:33:06;;;;;;;22.40;17.35;;;;;;;19.52;83.79;100534.66;686510;28;46172;-68
2021/09/16 00:33:27;;;;;;;34.33;24.75;;;;;;;19.51;83.61;100535.72;687203;28;68352;-68
2021/09/16 00:33:48;;;;;;;32.03;23.00;;;;;;;19.52;83.56;100526.44;688454;28;24207;-69
2021/09/16 00:34:10;;;;;;;29.15;22.58;;;;;;;19.53;83.67;100532.75;688712;28;22172;-68
2021/09/16 00:34:31;;;;;;;19.73;16.77;;;;;;;19.54;83.73;100534.41;687962;28;46134;-68
2021/09/16 00:34:52;;;;;;;16.35;14.15;;;;;;;19.54;83.49;100532.50;688271;28;22331;-69
2021/09/16 00:35:13;;;;;;;15.20;12.95;;;;;;;19.53;83.77;100532.75;688349;28;22395;-69
2021/09/16 00:35:35;;;;;;;13.27;11.88;;;;;;;19.55;83.43;100528.69;688867;28;22410;-69
2021/09/16 00:35:56;;;;;;;13.98;12.23;;;;;;;19.51;83.67;100527.50;687793;28;46324;-69
2021/09/16 00:36:17;;;;;;;18.25;15.05;;;;;;;19.55;83.79;100531.44;688412;28;21529;-68
2021/09/16 00:36:38;;;;;;;22.27;17.90;;;;;;;19.55;83.82;100533.34;691218;28;22223;-69
2021/09/16 00:36:59;;;;;;;30.55;22.17;;;;;;;19.55;83.64;100536.09;690980;28;22301;-69
2021/09/16 00:37:21;;;;;;;34.67;25.33;;;;;;;19.53;83.66;100528.13;691612;28;21496;-69
2021/09/16 00:37:42;;;;;;;26.45;19.85;;;;;;;19.55;83.61;100539.66;686770;28;46227;-69
2021/09/16 00:38:04;;;;;;;35.05;24.00;;;;;;;19.56;83.62;100545.94;687910;28;21445;-70
2021/09/16 00:38:26;;;;;;;35.13;23.10;;;;;;;19.53;83.55;100530.84;688536;28;23209;-69
2021/09/16 00:38:48;;;;;;;31.50;22.80;;;;;;;19.56;83.51;100537.72;686874;28;67582;-69
2021/09/16 00:39:09;;;;;;;30.33;22.63;;;;;;;19.57;83.61;100531.19;687713;28;46379;-68
2021/09/16 00:39:30;;;;;;;44.13;32.35;;;;;;;19.57;83.52;100533.94;688586;28;22428;-70
2021/09/16 00:39:51;;;;;;;38.00;29.48;;;;;;;19.56;83.59;100532.25;687389;28;45253;-69
2021/09/16 00:40:14;;;;;;;27.90;21.85;;;;;;;19.56;83.28;100527.63;688878;28;22409;-69
2021/09/16 00:40:36;;;;;;;25.45;20.83;;;;;;;19.58;83.50;100533.69;688661;28;44359;-68
2021/09/16 00:40:57;;;;;;;29.08;23.17;;;;;;;19.59;83.39;100532.63;687898;28;44467;-70
2021/09/16 00:41:18;;;;;;;23.67;18.85;;;;;;;19.59;83.25;100537.25;688253;28;23562;-70
2021/09/16 00:41:39;;;;;;;21.15;17.27;;;;;;;19.59;83.24;100529.88;688667;28;22410;-70
2021/09/16 00:42:01;;;;;;;18.83;15.70;;;;;;;19.60;83.21;100538.94;688310;28;46376;-69
2021/09/16 00:42:23;;;;;;;18.48;14.10;;;;;;;19.59;83.21;100529.88;687264;28;44412;-70
2021/09/16 00:42:44;;;;;;;18.55;12.98;;;;;;;19.61;83.15;100535.94;687706;28;46306;-70
2021/09/16 00:43:05;;;;;;;13.07;11.70;;;;;;;19.62;83.17;100532.16;688112;28;21321;-69
2021/09/16 00:43:27;;;;;;;12.88;11.50;;;;;;;19.62;83.06;100532.16;688653;28;22425;-70
2021/09/16 00:43:49;;;;;;;15.52;13.43;;;;;;;19.63;83.02;100531.03;687486;28;44407;-69
2021/09/16 00:44:10;;;;;;;16.17;13.93;;;;;;;19.65;82.94;100538.19;687987;28;45279;-70
2021/09/16 00:44:31;;;;;;;16.80;15.00;;;;;;;19.60;82.86;100522.50;688750;28;22429;-69
2021/09/16 00:44:53;;;;;;;16.85;15.13;;;;;;;19.65;83.08;100529.97;687843;28;44357;-70
2021/09/16 00:45:14;;;;;;;17.27;14.63;;;;;;;19.65;83.19;100529.97;685618;28;69298;-70
2021/09/16 00:45:35;;;;;;;19.20;15.25;;;;;;;19.65;83.00;100532.72;688010;28;45152;-69
2021/09/16 00:46:02;;;;;;;17.40;14.20;;;;;;;19.66;82.90;100528.91;688553;28;23455;-70
2021/09/16 00:46:23;;;;;;;17.48;15.20;;;;;;;19.67;82.95;100536.03;684656;28;136419;-70
2021/09/16 00:46:44;;;;;;;18.45;15.98;;;;;;;19.68;82.91;100537.72;690890;28;21580;-70
2021/09/16 00:47:05;;;;;;;22.27;19.55;;;;;;;19.66;82.71;100532.47;691102;28;23485;-70
2021/09/16 00:47:27;;;;;;;20.48;18.35;;;;;;;19.67;82.91;100533.31;691101;28;22440;-69
2021/09/16 00:47:50;;;;;;;17.80;14.45;;;;;;;19.67;82.59;100534.16;689593;28;44407;-70
2021/09/16 00:48:11;;;;;;;14.88;12.60;;;;;;;19.67;82.57;100534.16;690242;28;45269;-70
2021/09/16 00:48:33;;;;;;;14.38;11.68;;;;;;;19.66;82.38;100535.22;690584;28;23804;-69
2021/09/16 00:48:54;;;;;;;12.35;10.55;;;;;;;19.68;82.46;100535.81;687353;28;46281;-69
2021/09/16 00:49:16;;;;;;;13.02;10.68;;;;;;;19.69;82.56;100531.19;688679;28;22408;-70
2021/09/16 00:49:37;;;;;;;11.70;10.50;;;;;;;19.65;82.40;100529.97;688045;28;42979;-69
2021/09/16 00:49:58;;;;;;;11.77;10.48;;;;;;;19.68;82.55;100533.06;689439;28;21557;-69
2021/09/16 00:50:22;;;;;;;11.40;10.18;;;;;;;19.68;82.55;100534.97;689049;28;22400;-69
2021/09/16 00:50:44;;;;;;;11.57;10.48;;;;;;;19.68;82.40;100535.81;687340;28;92324;-70
2021/09/16 00:51:05;;;;;;;11.18;10.07;;;;;;;19.67;82.53;100536.91;690121;28;45251;-70
2021/09/16 00:51:26;;;;;;;11.55;10.07;;;;;;;19.68;82.65;100541.28;688450;28;21532;-68
2021/09/16 00:51:47;;;;;;;11.70;10.50;;;;;;;19.68;82.51;100534.97;688907;28;22391;-70
2021/09/16 00:52:09;;;;;;;11.75;10.55;;;;;;;19.68;82.44;100545.94;688327;28;22426;-69
2021/09/16 00:52:33;;;;;;;12.15;10.82;;;;;;;19.67;82.43;100539.63;687706;28;45265;-69
2021/09/16 00:52:54;;;;;;;14.50;12.88;;;;;;;19.68;82.37;100533.06;687358;28;55929;-69
2021/09/16 00:53:16;;;;;;;16.65;14.05;;;;;;;19.63;82.25;100538.44;688304;28;22376;-69
2021/09/16 00:53:39;;;;;;;14.15;12.65;;;;;;;19.70;82.46;100538.31;687669;28;44125;-69
2021/09/16 00:54:03;;;;;;;13.00;11.60;;;;;;;19.69;82.54;100536.66;685388;28;70261;-69
2021/09/16 00:54:24;;;;;;;14.80;11.60;;;;;;;19.67;82.46;100538.78;686253;28;92138;-70
2021/09/16 00:54:46;;;;;;;13.48;11.07;;;;;;;19.69;82.36;100548.44;688118;28;22142;-70
2021/09/16 00:55:09;;;;;;;12.63;11.13;;;;;;;19.72;82.28;100545.22;687788;28;44421;-69
2021/09/16 00:55:31;;;;;;;11.93;10.60;;;;;;;19.71;82.51;100535.31;687141;28;69594;-69
2021/09/16 00:55:54;;;;;;;11.73;10.52;;;;;;;19.71;82.25;100545.47;688420;28;22451;-69
2021/09/16 00:56:15;;;;;;;11.68;10.45;;;;;;;19.70;82.21;100541.88;688661;28;67291;-70
2021/09/16 00:56:38;;;;;;;12.18;10.02;;;;;;;19.71;82.38;100545.47;687898;28;41209;-69
2021/09/16 00:57:00;;;;;;;11.32;10.07;;;;;;;19.71;82.15;100540.78;686645;28;68481;-69
2021/09/16 00:57:22;;;;;;;11.63;10.43;;;;;;;19.72;82.08;100541.66;687909;28;44240;-69
2021/09/16 00:57:49;;;;;;;11.43;10.30;;;;;;;19.71;82.15;100539.97;686703;28;45226;-69
2021/09/16 00:58:10;;;;;;;11.95;10.45;;;;;;;19.72;82.04;100553.44;683817;28;137882;-70
2021/09/16 00:58:37;;;;;;;12.95;10.50;;;;;;;19.72;81.91;100547.13;688262;28;21245;-69
2021/09/16 00:58:58;;;;;;;10.70;9.60;;;;;;;19.72;81.89;100547.94;683518;28;160597;-69
2021/09/16 00:59:21;;;;;;;10.90;9.80;;;;;;;19.71;82.01;100549.00;686751;28;44527;-70
2021/09/16 00:59:44;;;;;;;11.02;9.93;;;;;;;19.72;81.91;100545.22;686995;28;44417;-70
2021/09/16 01:00:07;;;;;;;13.77;10.27;;;;;;;19.68;81.95;100544.03;685525;28;69476;-70
2021/09/16 01:00:28;;;;;;;11.82;10.13;;;;;;;19.71;82.15;100545.47;686037;28;90496;-70
2021/09/16 01:00:49;;;;;;;10.90;9.70;;;;;;;19.74;82.01;100553.19;688428;28;22421;-70
2021/09/16 01:01:11;;;;;;;11.05;9.95;;;;;;;19.74;81.93;100550.44;690817;28;21548;-69
2021/09/16 01:01:32;;;;;;;11.82;10.02;;;;;;;19.72;81.93;100553.44;690138;28;45266;-69
2021/09/16 01:01:54;;;;;;;11.63;10.43;;;;;;;19.73;82.07;100548.78;690807;28;46361;-69
2021/09/16 01:02:15;;;;;;;11.50;10.30;;;;;;;19.73;82.01;100552.38;690827;28;22386;-69
2021/09/16 01:02:37;;;;;;;11.50;10.32;;;;;;;19.71;82.00;100546.28;691235;28;21356;-69
2021/09/16 01:02:59;;;;;;;10.82;9.63;;;;;;;19.74;81.69;100548.53;689392;28;46433;-69
2021/09/16 01:03:20;;;;;;;12.75;10.30;;;;;;;19.74;81.81;100550.44;687083;28;45266;-69
2021/09/16 01:03:41;;;;;;;13.13;10.25;;;;;;;19.75;81.79;100549.38;688479;28;22988;-69
2021/09/16 01:04:02;;;;;;;11.57;9.98;;;;;;;19.74;81.91;100547.72;688513;28;13972;-69
2021/09/16 01:04:24;;;;;;;10.55;9.50;;;;;;;19.74;81.74;100548.53;688527;28;22519;-69
2021/09/16 01:04:45;;;;;;;11.30;9.75;;;;;;;19.72;81.79;100542.47;687302;28;44442;-69
2021/09/16 01:05:07;;;;;;;11.02;9.60;;;;;;;19.72;81.77;100542.47;688248;28;22270;-69
2021/09/16 01:05:29;;;;;;;10.77;9.50;;;;;;;19.73;81.88;100549.63;687733;28;46310;-69
2021/09/16 01:05:51;;;;;;;10.50;9.45;;;;;;;19.73;81.82;100544.16;687316;28;21555;-69
2021/09/16 01:06:12;;;;;;;10.10;9.10;;;;;;;19.72;81.66;100542.47;686878;28;68478;-70
2021/09/16 01:06:33;;;;;;;10.52;9.48;;;;;;;19.73;81.56;100546.03;688368;28;21533;-69
2021/09/16 01:06:54;;;;;;;11.15;9.98;;;;;;;19.71;81.69;100546.28;688490;28;21525;-69
2021/09/16 01:07:17;;;;;;;13.63;10.13;;;;;;;19.72;81.80;100545.22;688357;28;23479;-69
2021/09/16 01:07:40;;;;;;;10.27;9.27;;;;;;;19.71;81.76;100546.28;687471;28;45260;-70
2021/09/16 01:08:01;;;;;;;10.60;9.50;;;;;;;19.70;81.76;100554.75;686955;28;67487;-69
2021/09/16 01:08:22;;;;;;;11.43;9.45;;;;;;;19.70;81.66;100550.13;688310;28;22306;-69
2021/09/16 01:08:45;;;;;;;10.55;9.45;;;;;;;19.71;81.86;100545.47;687690;28;44330;-69
2021/09/16 01:09:07;;;;;;;12.75;9.13;;;;;;;19.71;81.78;100549.00;685685;28;69394;-69
2021/09/16 01:09:31;;;;;;;12.35;9.07;;;;;;;19.70;81.72;100541.03;687237;28;46277;-69
2021/09/16 01:09:52;;;;;;;11.80;9.00;;;;;;;19.70;81.66;100541.88;687097;28;69531;-70
2021/09/16 01:10:13;;;;;;;12.18;9.27;;;;;;;19.70;81.84;100543.78;688351;28;21471;-69
2021/09/16 01:10:35;;;;;;;10.30;9.23;;;;;;;19.71;81.83;100537.22;687729;28;44162;-70
2021/09/16 01:10:58;;;;;;;9.85;8.95;;;;;;;19.71;81.57;100542.72;686450;28;45281;-70
2021/09/16 01:11:20;;;;;;;9.65;8.75;;;;;;;19.70;81.59;100541.88;685810;28;69438;-70
2021/09/16 01:11:41;;;;;;;9.68;8.70;;;;;;;19.69;81.47;100539.41;688975;28;22422;-70
2021/09/16 01:12:04;;;;;;;9.95;8.63;;;;;;;19.70;81.47;100546.53;687252;28;21564;-69
2021/09/16 01:12:25;;;;;;;9.65;8.75;;;;;;;19.69;81.44;100548.44;686338;28;70317;-70
2021/09/16 01:12:46;;;;;;;10.13;8.77;;;;;;;19.68;81.50;100543.19;688416;28;23418;-69
2021/09/16 01:13:09;;;;;;;10.38;8.75;;;;;;;19.67;81.55;100547.00;688135;28;21585;-69
2021/09/16 01:13:31;;;;;;;9.80;8.50;;;;;;;19.68;81.61;100537.72;686682;28;69390;-69
2021/09/16 01:13:52;;;;;;;9.48;8.32;;;;;;;19.67;81.32;100539.63;687471;28;46518;-69
2021/09/16 01:14:21;;;;;;;10.02;8.75;;;;;;;19.65;81.23;100538.19;688598;28;22270;-69
2021/09/16 01:14:43;;;;;;;10.18;9.07;;;;;;;19.65;81.39;100540.94;683967;28;137859;-69
2021/09/16 01:15:08;;;;;;;9.90;9.00;;;;;;;19.65;81.29;100543.69;687699;28;44451;-69
2021/09/16 01:15:29;;;;;;;9.98;9.07;;;;;;;19.63;81.22;100542.00;685253;28;114477;-69
2021/09/16 01:15:50;;;;;;;10.55;8.98;;;;;;;19.65;81.33;100540.94;687212;28;23557;-70
2021/09/16 01:16:11;;;;;;;9.85;8.82;;;;;;;19.63;81.31;100549.41;687560;28;22314;-69
2021/09/16 01:16:33;;;;;;;10.32;9.07;;;;;;;19.63;81.45;100550.22;688423;28;21523;-69
2021/09/16 01:16:54;;;;;;;10.40;9.02;;;;;;;19.62;81.30;100545.00;687678;28;46344;-69
2021/09/16 01:17:16;;;;;;;10.07;8.70;;;;;;;19.62;81.44;100540.38;688337;28;23451;-70
2021/09/16 01:17:37;;;;;;;9.75;8.80;;;;;;;19.60;81.18;100542.50;687962;28;23512;-70
2021/09/16 01:17:59;;;;;;;9.90;9.00;;;;;;;19.61;81.35;100551.56;687461;28;44402;-69
2021/09/16 01:18:20;;;;;;;9.68;8.75;;;;;;;19.59;81.52;100546.31;687739;28;46390;-70
2021/09/16 01:18:41;;;;;;;9.77;8.63;;;;;;;19.60;81.39;100547.97;690799;28;21184;-69
2021/09/16 01:19:02;;;;;;;9.95;8.95;;;;;;;19.63;81.59;100552.16;690868;28;22469;-70
2021/09/16 01:19:28;;;;;;;9.77;8.82;;;;;;;19.61;81.42;100551.56;690571;28;38219;-69
2021/09/16 01:19:49;;;;;;;9.77;8.88;;;;;;;19.58;81.47;100546.56;689406;28;68883;-69
2021/09/16 01:20:11;;;;;;;10.02;9.05;;;;;;;19.62;81.41;100548.56;690763;28;22380;-70
2021/09/16 01:20:32;;;;;;;10.30;9.30;;;;;;;19.62;81.32;100547.72;689195;28;46192;-69
2021/09/16 01:20:55;;;;;;;9.63;8.70;;;;;;;19.61;81.42;100549.66;688332;28;22391;-69
2021/09/16 01:21:19;;;;;;;9.65;8.68;;;;;;;19.59;81.38;100543.59;689867;28;44391;-69
2021/09/16 01:21:40;;;;;;;9.77;8.52;;;;;;;19.65;81.25;100551.91;688490;28;115603;-69
2021/09/16 01:22:02;;;;;;;11.38;9.10;;;;;;;19.63;81.28;100550.22;690810;28;21687;-70
2021/09/16 01:22:24;;;;;;;10.48;8.75;;;;;;;19.59;81.20;100540.84;691038;28;21548;-69
2021/09/16 01:22:46;;;;;;;10.17;8.43;;;;;;;19.64;81.18;100559.28;689416;28;69404;-69
2021/09/16 01:23:08;;;;;;;10.30;9.02;;;;;;;19.65;81.30;100554.63;686845;28;69571;-70
2021/09/16 01:23:29;;;;;;;10.23;9.23;;;;;;;19.65;81.32;100562.84;688664;28;22267;-70
2021/09/16 01:23:52;;;;;;;12.50;9.55;;;;;;;19.62;81.26;100556.81;688524;28;21522;-70
2021/09/16 01:24:13;;;;;;;11.95;9.02;;;;;;;19.63;81.14;100552.16;686949;28;60639;-69
2021/09/16 01:24:34;;;;;;;10.85;9.38;;;;;;;19.65;81.12;100555.47;687875;28;45267;-69
2021/09/16 01:24:55;;;;;;;10.20;9.00;;;;;;;19.63;81.41;100557.63;688304;28;21338;-70
2021/09/16 01:25:17;;;;;;;10.82;8.70;;;;;;;19.63;81.39;100561.19;690422;28;21014;-69
2021/09/16 01:25:38;;;;;;;11.82;8.90;;;;;;;19.63;81.01;100555.69;688808;28;46369;-69
2021/09/16 01:26:00;;;;;;;10.48;9.48;;;;;;;19.59;81.16;100557.28;689647;28;23404;-70
2021/09/16 01:26:22;;;;;;;10.05;9.05;;;;;;;19.63;81.07;100563.91;689822;28;21099;-70
2021/09/16 01:26:44;;;;;;;9.60;8.70;;;;;;;19.58;81.32;100555.59;690224;28;44345;-69
2021/09/16 01:27:05;;;;;;;9.80;8.90;;;;;;;19.63;81.23;100560.34;689752;28;46407;-70
2021/09/16 01:27:26;;;;;;;9.95;8.95;;;;;;;19.63;81.09;100566.66;688508;28;21491;-70
2021/09/16 01:27:47;;;;;;;11.52;8.82;;;;;;;19.61;81.20;100557.84;687761;28;22437;-70
2021/09/16 01:28:09;;;;;;;9.80;8.55;;;;;;;19.63;81.18;100571.31;688179;28;21543;-70
2021/09/16 01:28:30;;;;;;;9.82;8.93;;;;;;;19.63;81.21;100563.09;687433;28;45794;-69
2021/09/16 01:28:51;;;;;;;10.13;9.15;;;;;;;19.61;81.26;100559.78;688289;28;21553;-70
2021/09/16 01:29:13;;;;;;;10.27;9.27;;;;;;;19.62;81.03;100564.16;688320;28;24281;-70
2021/09/16 01:29:35;;;;;;;10.23;9.18;;;;;;;19.62;81.37;100564.16;688235;28;44377;-69
2021/09/16 01:29:56;;;;;;;10.80;9.00;;;;;;;19.62;81.16;100565.00;687151;28;46495;-69
2021/09/16 01:30:18;;;;;;;11.15;9.27;;;;;;;19.63;81.22;100569.41;688299;28;22424;-69
2021/09/16 01:30:39;;;;;;;11.13;9.57;;;;;;;19.63;81.09;100565.84;688875;28;22409;-69
2021/09/16 01:31:01;;;;;;;10.13;9.13;;;;;;;19.63;81.04;100563.91;687748;28;46280;-69
2021/09/16 01:31:35;;;;;;;9.75;8.75;;;;;;;19.61;81.38;100562.53;687350;28;46131;-70
2021/09/16 01:32:01;;;;;;;10.55;8.60;;;;;;;19.61;81.18;100559.78;684379;28;137674;-70
2021/09/16 01:32:22;;;;;;;11.90;9.35;;;;;;;19.61;81.04;100560.59;684239;28;137778;-70
2021/09/16 01:32:44;;;;;;;10.57;9.02;;;;;;;19.60;81.16;100558.09;688360;28;23408;-70
2021/09/16 01:33:05;;;;;;;9.85;8.85;;;;;;;19.62;81.18;100564.16;687633;28;44412;-69
2021/09/16 01:33:26;;;;;;;9.63;8.73;;;;;;;19.61;81.08;100568.81;687935;28;21480;-70
2021/09/16 01:33:47;;;;;;;9.95;8.95;;;;;;;19.60;81.24;100567.16;688098;28;23383;-69
2021/09/16 01:34:10;;;;;;;10.15;9.15;;;;;;;19.61;81.28;100568.81;688426;28;23297;-69
2021/09/16 01:34:32;;;;;;;10.27;9.27;;;;;;;19.58;81.24;100563.81;689356;28;69315;-69
2021/09/16 01:34:53;;;;;;;9.80;8.80;;;;;;;19.60;81.14;100566.31;690417;28;22461;-69
2021/09/16 01:35:15;;;;;;;9.40;8.50;;;;;;;19.60;81.17;100574.53;689864;28;46152;-69
2021/09/16 01:35:37;;;;;;;10.07;9.07;;;;;;;19.60;81.26;100566.31;689997;28;23454;-69
2021/09/16 01:35:58;;;;;;;9.93;8.93;;;;;;;19.61;81.24;100570.75;687705;28;45245;-69
2021/09/16 01:36:19;;;;;;;10.43;9.05;;;;;;;19.60;81.22;100567.16;688889;28;22412;-70
2021/09/16 01:36:42;;;;;;;10.65;9.55;;;;;;;19.59;81.15;100570.13;687953;28;22399;-69
2021/09/16 01:37:05;;;;;;;10.77;9.02;;;;;;;19.58;81.23;100563.00;685935;28;92775;-70
2021/09/16 01:37:27;;;;;;;10.50;8.57;;;;;;;19.59;81.34;100570.13;687563;28;45234;-69
2021/09/16 01:37:49;;;;;;;10.38;9.30;;;;;;;19.59;81.00;100567.38;687105;28;43984;-69
2021/09/16 01:38:10;;;;;;;11.18;9.38;;;;;;;19.59;81.15;100564.66;687683;28;45323;-69
2021/09/16 01:38:31;;;;;;;9.48;8.45;;;;;;;19.59;81.14;100572.88;688366;28;21234;-69
2021/09/16 01:38:52;;;;;;;10.27;9.25;;;;;;;19.59;81.19;100578.34;688399;28;22343;-69
2021/09/16 01:39:16;;;;;;;13.85;11.30;;;;;;;19.58;81.25;100572.03;688482;28;21119;-69
2021/09/16 01:39:37;;;;;;;15.63;12.00;;;;;;;19.58;81.27;100579.44;685491;28;115284;-69
2021/09/16 01:39:58;;;;;;;15.15;11.55;;;;;;;19.57;81.23;100566.81;687904;28;22336;-69
2021/09/16 01:40:19;;;;;;;12.45;10.18;;;;;;;19.58;81.24;100573.97;688879;28;22310;-70
2021/09/16 01:40:42;;;;;;;10.13;9.13;;;;;;;19.56;81.56;100576.94;687506;28;46200;-70